LZKZ/KSC METAR and TAF weather

Enter ICAO airport designator
Station Type Date Time Source
LZKZ METAR 2021/07/30 22:00 UTC NOAA

LZKZ 302200Z 36004KT CAVOK 21/15 Q1010


Station Type Date Time Source
LZKZ Decoded METAR 2021/07/30 22:00 UTC NOAA

Kosice, Barca, Slovakia (LZKZ) 48-39-47N 021-14-28E
Jul 30, 2021 - 06:00 PM EDT / 2021.07.30 2200 UTC
Wind: from the N (360 degrees) at 5 MPH (4 KT):0
Visibility: greater than 7 mile(s):0
Temperature: 69 F (21 C)
Dew Point: 59 F (15 C)
Relative Humidity: 68%
Pressure (altimeter): 29.83 in. Hg (1010 hPa)
ob: LZKZ 302200Z 36004KT CAVOK 21/15 Q1010
cycle: 22

Station Type Date Time Source
LZKZ TAF 2021/07/30 18:45 UTC NOAA

TAF LZKZ 301700Z 3018/3118 VRB02KT CAVOK
TEMPO 3108/3112 25015G25KT 6000 TSRA FEW025 SCT035CB BKN045 PROB40
TEMPO 3108/3112 28030G40KT 3000 TSRA SQ
TEMPO 3112/3118 26012KT 9999 SCT045

Example: see airport list